KGCY/GCY METAR and TAF weather

Enter ICAO airport designator
Station Type Date Time Source
KGCY METAR 2021/06/22 23:15 UTC NOAA

KGCY 222315Z AUTO 28006KT 10SM CLR 23/12 A2998 RMK A01


Station Type Date Time Source
KGCY Decoded METAR 2021/06/22 23:15 UTC NOAA

Station name not available
Jun 22, 2021 - 07:15 PM EDT / 2021.06.22 2315 UTC
Wind: from the W (280 degrees) at 7 MPH (6 KT):0
Visibility: 10 mile(s):0
Sky conditions: clear
Temperature: 73 F (23 C)
Dew Point: 53 F (12 C)
Relative Humidity: 49%
Pressure (altimeter): 29.98 in. Hg (1015 hPa)
ob: KGCY 222315Z AUTO 28006KT 10SM CLR 23/12 A2998 RMK A01
cycle: 23

Station Type Date Time Source
KGCY TAF UTC NOAA

Error!

Example: see airport list